createdAt,value
2023-02-14T00:02:26.012Z,6.43
2023-02-14T00:04:52.698Z,5.53
2023-02-14T00:07:19.298Z,6.70
2023-02-14T00:09:45.848Z,5.93
2023-02-14T00:12:12.339Z,6.93
2023-02-14T00:14:38.824Z,6.47
2023-02-14T00:17:05.324Z,6.38
2023-02-14T00:19:31.879Z,6.68
2023-02-14T00:21:58.389Z,5.63
2023-02-14T00:24:26.565Z,6.07
2023-02-14T00:26:53.407Z,6.75
2023-02-14T00:29:22.932Z,5.88
2023-02-14T00:31:49.554Z,6.22
2023-02-14T00:34:16.946Z,6.60
2023-02-14T00:36:44.230Z,5.85
2023-02-14T00:39:12.683Z,7.20
2023-02-14T00:41:43.019Z,6.07
2023-02-14T00:46:36.939Z,6.63
2023-02-14T00:49:03.770Z,5.90
2023-02-14T00:51:30.751Z,6.30
2023-02-14T00:53:57.240Z,5.72
2023-02-14T00:56:23.798Z,6.68
2023-02-14T00:58:50.337Z,6.40
2023-02-14T01:01:17.654Z,6.70
2023-02-14T01:03:44.287Z,6.90
2023-02-14T01:06:10.864Z,7.43
2023-02-14T01:08:37.469Z,6.85
2023-02-14T01:11:08.839Z,7.03
2023-02-14T01:13:35.434Z,6.32
2023-02-14T01:16:06.739Z,5.53
2023-02-14T01:18:33.616Z,6.35
2023-02-14T01:21:17.567Z,6.63
2023-02-14T01:23:45.133Z,6.45
2023-02-14T01:26:12.515Z,6.90
2023-02-14T01:28:39.644Z,6.60
2023-02-14T01:31:18.135Z,6.28
2023-02-14T01:33:46.713Z,6.55
2023-02-14T01:36:22.816Z,7.85
2023-02-14T01:38:53.008Z,6.57
2023-02-14T01:41:20.692Z,6.95
2023-02-14T01:43:57.334Z,7.65
2023-02-14T01:46:25.747Z,6.78
2023-02-14T01:48:56.450Z,7.65
2023-02-14T01:51:24.546Z,7.07
2023-02-14T01:53:52.730Z,7.60
2023-02-14T01:56:24.896Z,6.57
2023-02-14T01:58:55.470Z,6.35
2023-02-14T02:01:23.215Z,6.50
2023-02-14T02:03:59.687Z,6.28
2023-02-14T02:06:30.298Z,7.25
2023-02-14T02:09:22.037Z,5.63
2023-02-14T02:11:48.999Z,7.35
2023-02-14T02:14:19.179Z,6.35
2023-02-14T02:17:30.642Z,6.47
2023-02-14T02:20:34.023Z,7.28
2023-02-14T02:23:09.670Z,6.25
2023-02-14T02:25:46.692Z,6.40
2023-02-14T02:28:24.954Z,7.00
2023-02-14T02:31:11.002Z,6.88
2023-02-14T02:34:15.327Z,6.75
2023-02-14T02:36:53.581Z,6.07
2023-02-14T02:39:44.636Z,6.63
2023-02-14T02:42:37.368Z,5.43
2023-02-14T02:45:29.624Z,5.68
2023-02-14T02:48:21.803Z,6.32
2023-02-14T02:50:55.877Z,5.78
2023-02-14T02:53:44.071Z,6.25
2023-02-14T02:58:59.658Z,5.15
2023-02-14T03:04:10.955Z,5.15
2023-02-14T03:06:37.620Z,5.70
2023-02-14T03:09:19.538Z,6.03
2023-02-14T03:11:57.633Z,5.15
2023-02-14T03:14:40.431Z,6.28
2023-02-14T03:17:32.820Z,6.18
2023-02-14T03:20:02.187Z,6.47
2023-02-14T03:22:56.106Z,7.32
2023-02-14T03:25:56.460Z,6.60
2023-02-14T03:28:30.404Z,6.72
2023-02-14T03:31:12.267Z,6.72
2023-02-14T03:33:58.619Z,5.25
2023-02-14T03:36:27.795Z,7.18
2023-02-14T03:39:06.364Z,7.22
2023-02-14T03:41:39.472Z,6.95
2023-02-14T03:44:09.644Z,6.28
2023-02-14T03:46:45.477Z,7.03
2023-02-14T03:49:17.950Z,6.75
2023-02-14T03:51:48.967Z,6.47
2023-02-14T03:54:17.796Z,7.00
2023-02-14T03:56:53.535Z,6.88
2023-02-14T03:59:26.351Z,6.70
2023-02-14T04:02:08.770Z,6.43
2023-02-14T04:04:40.432Z,5.85
2023-02-14T04:07:13.035Z,7.05
2023-02-14T04:09:40.149Z,6.68
2023-02-14T04:12:07.035Z,7.05
2023-02-14T04:14:33.748Z,5.93
2023-02-14T04:17:00.242Z,6.70
2023-02-14T04:19:26.889Z,6.43
2023-02-14T04:21:53.561Z,5.75
2023-02-14T04:24:20.498Z,7.03
2023-02-14T04:26:47.018Z,6.35
2023-02-14T04:29:13.551Z,6.80
2023-02-14T04:31:40.160Z,6.60
2023-02-14T04:34:06.710Z,7.38
2023-02-14T04:36:34.900Z,7.10
2023-02-14T04:39:01.367Z,6.25
2023-02-14T04:41:27.933Z,7.25
2023-02-14T04:43:54.471Z,6.47
2023-02-14T04:46:21.551Z,6.85
2023-02-14T04:48:48.094Z,6.90
2023-02-14T04:51:14.668Z,7.45
2023-02-14T04:53:41.211Z,7.90
2023-02-14T04:56:08.415Z,6.45
2023-02-14T04:58:35.106Z,6.80
2023-02-14T05:01:01.933Z,7.20
2023-02-14T05:03:28.655Z,5.80
2023-02-14T05:05:55.194Z,6.57
2023-02-14T05:08:21.691Z,6.78
2023-02-14T05:10:48.426Z,6.45
2023-02-14T05:13:14.999Z,6.88
2023-02-14T05:15:41.495Z,6.47
2023-02-14T05:18:08.076Z,6.57
2023-02-14T05:20:34.626Z,5.32
2023-02-14T05:23:01.142Z,6.93
2023-02-14T05:25:27.691Z,6.78
2023-02-14T05:27:54.256Z,6.82
2023-02-14T05:30:21.133Z,7.35
2023-02-14T05:32:47.765Z,6.15
2023-02-14T05:35:14.263Z,7.47
2023-02-14T05:37:40.732Z,7.38
2023-02-14T05:40:10.203Z,7.10
2023-02-14T05:42:36.733Z,8.95
2023-02-14T05:45:03.348Z,8.00
2023-02-14T05:47:29.857Z,8.48
2023-02-14T05:49:56.326Z,8.10
2023-02-14T05:52:22.947Z,7.72
2023-02-14T05:54:49.523Z,7.05
2023-02-14T05:57:16.462Z,7.10
2023-02-14T05:59:42.943Z,7.03
2023-02-14T06:02:09.554Z,8.10
2023-02-14T06:04:36.387Z,9.02
2023-02-14T06:07:03.286Z,5.93
2023-02-14T06:09:29.778Z,6.63
2023-02-14T06:11:56.334Z,7.47
2023-02-14T06:14:22.907Z,7.25
2023-02-14T06:16:49.574Z,7.03
2023-02-14T06:19:16.181Z,7.65
2023-02-14T06:21:42.746Z,7.82
2023-02-14T06:24:09.636Z,7.45
2023-02-14T06:26:36.237Z,6.75
2023-02-14T06:29:03.784Z,7.53
2023-02-14T06:31:30.593Z,8.35
2023-02-14T06:33:57.308Z,7.32
2023-02-14T06:36:24.748Z,8.68
2023-02-14T06:38:51.295Z,8.27
2023-02-14T06:41:17.780Z,7.47
2023-02-14T06:43:46.003Z,7.93
2023-02-14T06:46:12.506Z,7.53
2023-02-14T06:48:39.002Z,7.38
2023-02-14T06:51:05.816Z,12.32
2023-02-14T06:53:32.363Z,12.60
2023-02-14T06:55:58.855Z,10.57
2023-02-14T06:58:25.362Z,8.38
2023-02-14T07:00:51.862Z,9.00
2023-02-14T07:03:18.419Z,8.70
2023-02-14T07:05:44.950Z,8.13
2023-02-14T07:08:11.460Z,7.40
2023-02-14T07:10:38.025Z,8.43
2023-02-14T07:13:05.125Z,9.07
2023-02-14T07:15:31.956Z,8.80
2023-02-14T07:17:58.532Z,7.85
2023-02-14T07:20:25.259Z,9.18
2023-02-14T07:22:51.891Z,9.63
2023-02-14T07:25:18.500Z,8.60
2023-02-14T07:27:45.071Z,8.10
2023-02-14T07:30:12.735Z,8.68
2023-02-14T07:32:40.523Z,10.80
2023-02-14T07:35:07.904Z,10.52
2023-02-14T07:37:35.531Z,8.25
2023-02-14T07:40:02.507Z,6.20
2023-02-14T07:42:29.112Z,6.45
2023-02-14T07:44:55.774Z,5.85
2023-02-14T07:47:22.302Z,4.78
2023-02-14T07:49:48.799Z,4.60
2023-02-14T07:52:15.281Z,5.57
2023-02-14T07:54:41.858Z,4.93
2023-02-14T07:57:08.476Z,4.75
2023-02-14T07:59:35.104Z,5.32
2023-02-14T08:02:01.771Z,5.68
2023-02-14T08:04:28.389Z,5.65
2023-02-14T08:06:54.946Z,5.40
2023-02-14T08:09:22.040Z,5.28
2023-02-14T08:11:48.541Z,5.40
2023-02-14T08:14:15.049Z,4.95
2023-02-14T08:16:41.598Z,6.10
2023-02-14T08:19:08.319Z,6.50
2023-02-14T08:21:34.862Z,5.50
2023-02-14T08:24:01.381Z,5.13
2023-02-14T08:26:27.981Z,5.15
2023-02-14T08:28:54.554Z,5.30
2023-02-14T08:31:35.545Z,5.55
2023-02-14T08:34:02.600Z,5.60
2023-02-14T08:36:29.098Z,5.10
2023-02-14T08:38:55.697Z,4.90
2023-02-14T08:41:22.274Z,5.80
2023-02-14T08:43:49.337Z,4.88
2023-02-14T08:46:16.169Z,5.60
2023-02-14T08:48:43.780Z,5.88
2023-02-14T08:51:12.738Z,5.15
2023-02-14T08:53:40.230Z,6.22
2023-02-14T08:56:10.401Z,6.25
2023-02-14T08:58:37.363Z,5.18
2023-02-14T09:01:12.019Z,5.40
2023-02-14T09:03:39.190Z,5.30
2023-02-14T09:06:12.344Z,6.53
2023-02-14T09:08:39.665Z,6.00
2023-02-14T09:11:14.233Z,5.78
2023-02-14T09:13:44.606Z,6.03
2023-02-14T09:16:12.680Z,5.53
2023-02-14T09:18:39.942Z,5.72
2023-02-14T09:21:11.741Z,6.28
2023-02-14T09:23:39.050Z,7.07
2023-02-14T09:26:07.898Z,5.88
2023-02-14T09:28:35.259Z,6.13
2023-02-14T09:31:28.171Z,6.72
2023-02-14T09:33:54.731Z,6.28
2023-02-14T09:36:21.248Z,6.30
2023-02-14T09:38:47.804Z,5.53
2023-02-14T09:41:52.842Z,5.90
2023-02-14T09:44:43.093Z,5.75
2023-02-14T09:47:36.195Z,5.97
2023-02-14T09:52:33.833Z,5.65
2023-02-14T09:55:02.228Z,6.35
2023-02-14T09:57:40.208Z,6.38
2023-02-14T10:00:26.444Z,6.40
2023-02-14T10:02:55.666Z,5.68
2023-02-14T10:05:28.669Z,6.57
2023-02-14T10:08:16.575Z,6.25
2023-02-14T10:10:46.334Z,5.45
2023-02-14T10:13:31.447Z,6.63
2023-02-14T10:16:22.430Z,5.75
2023-02-14T10:19:07.775Z,5.85
2023-02-14T10:21:39.438Z,6.05
2023-02-14T10:24:18.677Z,6.30
2023-02-14T10:26:47.945Z,6.75
2023-02-14T10:29:17.774Z,6.00
2023-02-14T10:32:01.593Z,7.07
2023-02-14T10:34:41.473Z,7.22
2023-02-14T10:37:36.881Z,6.18
2023-02-14T10:40:21.792Z,6.68
2023-02-14T10:42:48.352Z,6.50
2023-02-14T10:45:39.201Z,6.57
2023-02-14T10:48:11.419Z,5.72
2023-02-14T10:50:41.044Z,6.70
2023-02-14T10:55:44.423Z,6.70
2023-02-14T10:58:15.944Z,5.93
2023-02-14T11:00:59.449Z,6.60
2023-02-14T11:03:29.491Z,7.53
2023-02-14T11:05:56.539Z,6.47
2023-02-14T11:08:35.709Z,6.35
2023-02-14T11:11:14.079Z,6.28
2023-02-14T11:13:41.331Z,7.18
2023-02-14T11:16:10.708Z,7.07
2023-02-14T11:18:38.903Z,7.65
2023-02-14T11:21:16.759Z,7.00
2023-02-14T11:23:49.446Z,6.60
2023-02-14T11:26:34.275Z,6.72
2023-02-14T11:29:12.391Z,6.47
2023-02-14T11:31:41.285Z,6.88
2023-02-14T11:34:34.904Z,7.53
2023-02-14T11:37:01.686Z,6.63
2023-02-14T11:39:34.313Z,6.95
2023-02-14T11:42:04.529Z,7.22
2023-02-14T11:44:33.972Z,7.70
2023-02-14T11:47:30.655Z,6.65
2023-02-14T11:50:03.884Z,6.88
2023-02-14T11:52:30.640Z,7.53
2023-02-14T11:54:58.135Z,7.28
2023-02-14T11:57:27.031Z,7.25
2023-02-14T11:59:55.817Z,7.60
2023-02-14T12:02:24.798Z,7.10
2023-02-14T12:05:07.087Z,7.25
2023-02-14T12:07:37.602Z,6.68
2023-02-14T12:10:06.958Z,6.93
2023-02-14T12:12:35.163Z,7.07
2023-02-14T12:15:20.549Z,7.80
2023-02-14T12:17:49.474Z,8.07
2023-02-14T12:20:22.987Z,8.88
2023-02-14T12:23:14.751Z,8.35
2023-02-14T12:26:05.092Z,8.75
2023-02-14T12:28:39.005Z,7.18
2023-02-14T12:31:13.212Z,9.25
2023-02-14T12:33:40.706Z,7.95
2023-02-14T12:36:17.391Z,8.70
2023-02-14T12:39:12.019Z,7.05
2023-02-14T12:42:01.956Z,7.60
2023-02-14T12:44:53.000Z,6.75
2023-02-14T12:47:38.345Z,7.10
2023-02-14T12:50:29.944Z,7.03
2023-02-14T12:53:03.602Z,8.30
2023-02-14T12:55:51.922Z,7.85
2023-02-14T12:58:44.787Z,6.80
2023-02-14T13:01:38.565Z,6.97
2023-02-14T13:04:20.790Z,7.22
2023-02-14T13:07:07.939Z,8.10
2023-02-14T13:09:40.236Z,7.45
2023-02-14T13:12:28.855Z,7.88
2023-02-14T13:15:01.482Z,7.93
2023-02-14T13:17:40.810Z,8.43
2023-02-14T13:20:29.636Z,8.43
2023-02-14T13:23:01.788Z,14.13
2023-02-14T13:25:40.488Z,8.57
2023-02-14T13:28:12.647Z,7.05
2023-02-14T13:30:39.785Z,9.07
2023-02-14T13:33:18.143Z,8.10
2023-02-14T13:35:45.247Z,6.97
2023-02-14T13:38:15.428Z,7.13
2023-02-14T13:40:42.427Z,6.85
2023-02-14T13:43:09.011Z,7.35
2023-02-14T13:45:35.496Z,6.53
2023-02-14T13:48:03.287Z,6.20
2023-02-14T13:50:29.874Z,6.38
2023-02-14T13:52:56.411Z,6.97
2023-02-14T13:55:33.542Z,6.88
2023-02-14T13:58:06.248Z,7.28
2023-02-14T14:00:55.718Z,6.68
2023-02-14T14:03:28.866Z,5.90
2023-02-14T14:06:09.876Z,6.65
2023-02-14T14:08:38.560Z,8.13
2023-02-14T14:11:23.779Z,10.40
2023-02-14T14:14:24.301Z,7.78
2023-02-14T14:17:01.466Z,7.97
2023-02-14T14:19:27.940Z,8.32
2023-02-14T14:22:03.645Z,8.13
2023-02-14T14:24:37.337Z,6.55
2023-02-14T14:27:14.173Z,7.90
2023-02-14T14:29:47.420Z,6.53
2023-02-14T14:32:29.247Z,8.45
2023-02-14T14:35:21.893Z,5.97
2023-02-14T14:37:54.800Z,5.97
2023-02-14T14:40:30.399Z,6.80
2023-02-14T14:43:16.325Z,5.72
2023-02-14T14:45:46.282Z,5.80
2023-02-14T14:48:18.212Z,6.35
2023-02-14T14:50:46.612Z,6.20
2023-02-14T14:53:26.180Z,6.38
2023-02-14T14:55:53.013Z,6.90
2023-02-14T14:58:40.443Z,6.72
2023-02-14T15:01:12.761Z,6.13
2023-02-14T15:03:40.051Z,7.05
2023-02-14T15:06:19.423Z,7.38
2023-02-14T15:08:46.562Z,6.88
2023-02-14T15:11:23.916Z,7.22
2023-02-14T15:13:51.099Z,7.20
2023-02-14T15:16:33.818Z,10.93
2023-02-14T15:19:08.219Z,8.80
2023-02-14T15:21:35.019Z,10.13
2023-02-14T15:24:02.776Z,8.48
2023-02-14T15:26:33.821Z,8.02
2023-02-14T15:29:03.806Z,7.85
2023-02-14T15:31:41.240Z,8.25
2023-02-14T15:34:10.005Z,8.27
2023-02-14T15:36:36.943Z,8.00
2023-02-14T15:39:07.742Z,8.07
2023-02-14T15:41:34.377Z,9.07
2023-02-14T15:44:00.942Z,8.75
2023-02-14T15:46:31.268Z,8.82
2023-02-14T15:48:59.751Z,9.32
2023-02-14T15:51:32.027Z,8.15
2023-02-14T15:54:01.453Z,8.98
2023-02-14T15:56:35.017Z,9.32
2023-02-14T15:59:03.531Z,9.27
2023-02-14T16:01:32.734Z,9.00
2023-02-14T16:04:02.474Z,9.05
2023-02-14T16:06:36.734Z,9.55
2023-02-14T16:09:05.953Z,9.13
2023-02-14T16:11:32.379Z,8.85
2023-02-14T16:14:19.048Z,10.93
2023-02-14T16:17:02.133Z,8.45
2023-02-14T16:19:46.769Z,8.27
2023-02-14T16:22:25.899Z,8.73
2023-02-14T16:24:52.473Z,8.88
2023-02-14T16:27:18.952Z,8.50
2023-02-14T16:29:45.506Z,9.43
2023-02-14T16:32:18.586Z,8.63
2023-02-14T16:34:45.873Z,8.35
2023-02-14T16:37:25.166Z,9.27
2023-02-14T16:39:53.659Z,11.07
2023-02-14T16:42:20.661Z,10.48
2023-02-14T16:44:48.134Z,9.77
2023-02-14T16:47:16.232Z,9.05
2023-02-14T16:49:42.843Z,9.38
2023-02-14T16:52:14.435Z,9.38
2023-02-14T16:54:41.021Z,9.55
2023-02-14T16:57:23.604Z,8.65
2023-02-14T16:59:51.818Z,9.60
2023-02-14T17:02:18.397Z,9.10
2023-02-14T17:04:45.418Z,9.68
2023-02-14T17:07:13.755Z,9.45
2023-02-14T17:09:46.064Z,8.00
2023-02-14T17:12:19.860Z,10.50
2023-02-14T17:14:51.150Z,8.52
2023-02-14T17:17:17.748Z,9.25
2023-02-14T17:19:44.397Z,8.70
2023-02-14T17:22:13.053Z,8.23
2023-02-14T17:24:40.306Z,8.25
2023-02-14T17:27:09.064Z,7.97
2023-02-14T17:29:35.888Z,8.88
2023-02-14T17:32:02.515Z,8.40
2023-02-14T17:34:33.220Z,9.10
2023-02-14T17:36:59.897Z,9.25
2023-02-14T17:39:26.682Z,9.18
2023-02-14T17:41:53.194Z,9.15
2023-02-14T17:44:19.769Z,8.68
2023-02-14T17:46:46.391Z,8.88
2023-02-14T17:49:12.976Z,8.75
2023-02-14T17:51:39.806Z,8.63
2023-02-14T17:54:06.361Z,8.52
2023-02-14T17:56:32.919Z,9.52
2023-02-14T17:58:59.494Z,9.88
2023-02-14T18:01:28.472Z,9.57
2023-02-14T18:03:55.303Z,9.18
2023-02-14T18:06:21.942Z,9.20
2023-02-14T18:08:50.502Z,8.18
2023-02-14T18:11:18.695Z,9.50
2023-02-14T18:13:45.580Z,9.00
2023-02-14T18:16:15.867Z,8.73
2023-02-14T18:18:42.587Z,10.20
2023-02-14T18:21:12.092Z,8.30
2023-02-14T18:23:38.639Z,8.80
2023-02-14T18:26:09.649Z,8.18
2023-02-14T18:28:36.679Z,9.00
2023-02-14T18:31:09.509Z,7.82
2023-02-14T18:33:36.839Z,9.38
2023-02-14T18:36:08.640Z,10.95
2023-02-14T18:38:35.442Z,15.38
2023-02-14T18:41:07.555Z,13.43
2023-02-14T18:43:35.079Z,13.68
2023-02-14T18:46:05.374Z,12.35
2023-02-14T18:48:32.603Z,11.05
2023-02-14T18:51:25.637Z,10.27
2023-02-14T18:53:52.581Z,11.45
2023-02-14T18:56:22.292Z,11.68
2023-02-14T18:58:50.763Z,12.05
2023-02-14T19:01:23.696Z,9.80
2023-02-14T19:03:52.004Z,9.32
2023-02-14T19:06:19.448Z,9.80
2023-02-14T19:08:46.236Z,9.30
2023-02-14T19:11:21.381Z,8.60
2023-02-14T19:13:53.888Z,9.27
2023-02-14T19:16:23.926Z,8.95
2023-02-14T19:18:51.014Z,9.13
2023-02-14T19:21:20.157Z,8.77
2023-02-14T19:23:49.534Z,8.07
2023-02-14T19:26:21.831Z,8.30
2023-02-14T19:28:50.506Z,8.50
2023-02-14T19:31:19.508Z,9.50
2023-02-14T19:33:46.890Z,9.15
2023-02-14T19:36:16.315Z,10.63
2023-02-14T19:38:47.842Z,11.70
2023-02-14T19:41:23.273Z,11.52
2023-02-14T19:43:50.289Z,12.02
2023-02-14T19:46:19.242Z,13.13
2023-02-14T19:48:46.563Z,12.88
2023-02-14T19:51:21.565Z,10.93
2023-02-14T19:53:48.784Z,11.02
2023-02-14T19:56:32.854Z,12.40
2023-02-14T19:58:59.574Z,11.65
2023-02-14T20:01:33.364Z,10.85
2023-02-14T20:04:00.760Z,10.07
2023-02-14T20:06:28.618Z,10.07
2023-02-14T20:08:55.789Z,10.07
2023-02-14T20:11:25.222Z,10.32
2023-02-14T20:13:53.554Z,10.70
2023-02-14T20:16:20.434Z,9.95
2023-02-14T20:18:50.273Z,11.55
2023-02-14T20:21:22.522Z,11.70
2023-02-14T20:23:49.159Z,12.45
2023-02-14T20:26:16.480Z,12.23
2023-02-14T20:28:43.538Z,11.43
2023-02-14T20:31:11.661Z,11.10
2023-02-14T20:33:39.104Z,11.63
2023-02-14T20:36:08.348Z,11.30
2023-02-14T20:38:35.175Z,10.82
2023-02-14T20:41:08.473Z,10.75
2023-02-14T20:43:35.786Z,10.07
2023-02-14T20:46:05.547Z,11.60
2023-02-14T20:48:33.515Z,11.00
2023-02-14T20:51:13.131Z,11.57
2023-02-14T20:53:41.834Z,11.13
2023-02-14T20:56:09.941Z,10.45
2023-02-14T20:58:38.113Z,11.73
2023-02-14T21:01:06.504Z,11.18
2023-02-14T21:03:33.267Z,12.45
2023-02-14T21:06:01.966Z,12.05
2023-02-14T21:08:29.878Z,11.20
2023-02-14T21:10:56.686Z,11.10
2023-02-14T21:13:23.202Z,10.70
2023-02-14T21:15:51.148Z,11.05
2023-02-14T21:18:17.851Z,12.93
2023-02-14T21:20:44.538Z,11.10
2023-02-14T21:23:11.318Z,12.10
2023-02-14T21:25:39.595Z,13.68
2023-02-14T21:28:06.470Z,10.93
2023-02-14T21:30:33.356Z,12.68
2023-02-14T21:32:59.944Z,12.75
2023-02-14T21:35:26.539Z,10.75
2023-02-14T21:37:53.097Z,11.95
2023-02-14T21:40:19.730Z,11.32
2023-02-14T21:42:47.639Z,12.30
2023-02-14T21:45:14.185Z,11.73
2023-02-14T21:47:40.715Z,10.80
2023-02-14T21:50:07.611Z,10.80
2023-02-14T21:52:34.516Z,12.07
2023-02-14T21:55:01.044Z,11.27
2023-02-14T21:57:29.035Z,13.13
2023-02-14T21:59:55.654Z,11.98
2023-02-14T22:02:22.308Z,12.43
2023-02-14T22:04:48.834Z,11.25
2023-02-14T22:07:15.315Z,12.98
2023-02-14T22:09:41.779Z,12.00
2023-02-14T22:12:08.306Z,12.13
2023-02-14T22:14:34.817Z,12.00
2023-02-14T22:17:01.345Z,12.30
2023-02-14T22:19:28.032Z,11.35
2023-02-14T22:21:54.547Z,10.50
2023-02-14T22:24:21.069Z,11.27
2023-02-14T22:26:47.610Z,12.45
2023-02-14T22:29:14.122Z,11.68
2023-02-14T22:31:42.630Z,11.48
2023-02-14T22:34:11.586Z,12.73
2023-02-14T22:36:39.172Z,12.68
2023-02-14T22:39:06.526Z,13.07
2023-02-14T22:41:33.064Z,11.55
2023-02-14T22:43:59.593Z,12.13
2023-02-14T22:46:28.015Z,13.85
2023-02-14T22:48:55.828Z,11.98
2023-02-14T22:51:22.344Z,12.60
2023-02-14T22:53:50.695Z,11.50
2023-02-14T22:56:22.462Z,11.98
2023-02-14T22:58:52.375Z,11.88
2023-02-14T23:01:20.511Z,11.40
2023-02-14T23:03:48.199Z,13.63
2023-02-14T23:06:15.273Z,12.77
2023-02-14T23:08:43.736Z,12.43
2023-02-14T23:11:13.054Z,13.52
2023-02-14T23:13:39.635Z,11.95
2023-02-14T23:16:06.228Z,12.48
2023-02-14T23:18:32.708Z,13.18
2023-02-14T23:20:59.283Z,13.70
2023-02-14T23:23:30.797Z,11.32
2023-02-14T23:25:57.345Z,12.85
2023-02-14T23:28:23.935Z,12.10
2023-02-14T23:30:50.500Z,12.18
2023-02-14T23:33:17.028Z,12.38
2023-02-14T23:35:43.576Z,14.23
2023-02-14T23:38:10.122Z,12.27
2023-02-14T23:40:36.607Z,12.95
2023-02-14T23:43:03.132Z,13.30
2023-02-14T23:45:29.683Z,12.45
2023-02-14T23:47:56.248Z,11.38
2023-02-14T23:50:22.839Z,12.55
2023-02-14T23:52:49.392Z,10.27
2023-02-14T23:55:15.995Z,12.68
2023-02-14T23:57:42.485Z,11.63
